Time;durP1;ratioP1;P1;durP2;ratioP2;P2;SDS_P1;SDS_P2;PMS_P1;PMS_P2;Temp;Humidity;BMP_temperature;BMP_pressure;BME280_temperature;BME280_humidity;BME280_pressure;Samples;Min_cycle;Max_cycle;Signal;HPM_P1;HPM_P2
2021/04/07 04:01:45;;;;;;;12.50;8.10;;;0.80;99.90;;;;;;5290311;23;20333;-70
2021/04/07 04:04:11;;;;;;;11.98;9.02;;;0.80;99.90;;;;;;4897151;29;20223;-69
2021/04/07 04:06:38;;;;;;;9.65;8.02;;;0.80;99.90;;;;;;4897570;29;20219;-69
2021/04/07 04:09:05;;;;;;;13.10;7.30;;;0.80;99.90;;;;;;4897759;29;20612;-70
2021/04/07 04:11:31;;;;;;;11.85;8.00;;;0.70;99.90;;;;;;4886857;29;20244;-70
2021/04/07 04:13:57;;;;;;;14.65;9.35;;;0.70;99.90;;;;;;4879238;29;20629;-71
2021/04/07 04:16:24;;;;;;;12.50;8.43;;;0.70;99.90;;;;;;4879498;29;20212;-72
2021/04/07 04:18:51;;;;;;;15.15;8.65;;;0.70;99.90;;;;;;4878960;29;20211;-69
2021/04/07 04:21:17;;;;;;;14.10;8.05;;;0.60;99.90;;;;;;4878681;29;20310;-69
2021/04/07 04:23:43;;;;;;;12.65;8.10;;;0.60;99.90;;;;;;4878932;29;20251;-70
2021/04/07 04:26:09;;;;;;;18.38;11.52;;;0.60;99.90;;;;;;4879235;29;20211;-70
2021/04/07 04:28:37;;;;;;;10.98;8.05;;;0.60;99.90;;;;;;4878815;29;20212;-72
2021/04/07 04:31:03;;;;;;;19.02;9.02;;;0.60;99.90;;;;;;4878679;29;20227;-72
2021/04/07 04:33:29;;;;;;;10.70;7.13;;;0.60;99.90;;;;;;4879232;29;20208;-71
2021/04/07 04:35:57;;;;;;;17.63;8.70;;;0.60;99.90;;;;;;4884952;29;20664;-72
2021/04/07 04:38:24;;;;;;;12.27;8.73;;;0.60;99.90;;;;;;4884881;29;20243;-72
2021/04/07 04:40:50;;;;;;;15.52;9.48;;;0.60;99.90;;;;;;4884685;29;20703;-72
2021/04/07 04:43:16;;;;;;;12.43;8.82;;;0.60;99.90;;;;;;4884869;29;20214;-71
2021/04/07 04:45:43;;;;;;;16.80;8.70;;;0.60;99.90;;;;;;4884943;29;20212;-71
2021/04/07 04:48:10;;;;;;;11.50;8.10;;;0.60;99.90;;;;;;4884486;29;20691;-70
2021/04/07 04:50:36;;;;;;;17.73;9.00;;;0.60;99.90;;;;;;4884778;29;20239;-71
2021/04/07 04:53:03;;;;;;;22.38;9.00;;;0.60;99.90;;;;;;4885023;29;20737;-71
2021/04/07 04:55:30;;;;;;;14.85;8.05;;;0.60;99.90;;;;;;4884408;29;20668;-71
2021/04/07 04:57:56;;;;;;;22.65;9.60;;;0.60;99.90;;;;;;4884676;29;20204;-71
2021/04/07 05:00:23;;;;;;;10.95;7.80;;;0.70;99.90;;;;;;4884394;29;20208;-72
2021/04/07 05:02:49;;;;;;;10.50;7.05;;;0.70;99.90;;;;;;4884289;29;20204;-71
2021/04/07 05:05:16;;;;;;;15.02;8.25;;;0.70;99.90;;;;;;4885377;29;20204;-71
2021/04/07 05:07:42;;;;;;;15.73;8.82;;;0.80;99.90;;;;;;4884700;29;20251;-71
2021/04/07 05:10:10;;;;;;;11.13;6.70;;;0.80;99.90;;;;;;4885280;29;20208;-71
2021/04/07 05:12:36;;;;;;;9.30;7.75;;;0.90;99.90;;;;;;4884201;29;20227;-71
2021/04/07 05:15:03;;;;;;;12.48;7.15;;;0.90;99.90;;;;;;4884737;29;20211;-71
2021/04/07 05:17:29;;;;;;;20.95;7.55;;;0.90;99.90;;;;;;4884238;29;20222;-71
2021/04/07 05:19:55;;;;;;;12.70;6.97;;;0.90;99.90;;;;;;4884930;29;20276;-71
2021/04/07 05:22:21;;;;;;;8.43;5.95;;;1.00;99.90;;;;;;4884395;29;20323;-70
2021/04/07 05:24:47;;;;;;;11.65;6.70;;;1.00;99.90;;;;;;4884368;29;20649;-70
2021/04/07 05:27:14;;;;;;;10.50;6.22;;;1.10;99.90;;;;;;4883962;29;20264;-71
2021/04/07 05:29:41;;;;;;;7.95;5.45;;;1.20;99.90;;;;;;4884734;29;20215;-70
2021/04/07 05:32:07;;;;;;;11.70;6.57;;;1.20;99.90;;;;;;4883070;29;20720;-70
2021/04/07 05:34:33;;;;;;;8.02;5.35;;;1.30;99.90;;;;;;4884507;29;20215;-69
2021/04/07 05:37:00;;;;;;;10.20;6.03;;;1.30;99.90;;;;;;4883820;29;20204;-69
2021/04/07 05:39:26;;;;;;;9.32;5.65;;;1.40;99.90;;;;;;4884796;29;20569;-68
2021/04/07 05:41:53;;;;;;;9.95;5.40;;;1.50;99.90;;;;;;4883756;29;20220;-68
2021/04/07 05:44:20;;;;;;;12.25;5.93;;;1.50;99.90;;;;;;4884590;29;20212;-68
2021/04/07 05:46:46;;;;;;;7.78;5.40;;;1.60;99.90;;;;;;4881095;29;20208;-69
2021/04/07 05:49:12;;;;;;;9.25;5.07;;;1.60;99.90;;;;;;4881111;29;20207;-68
2021/04/07 05:51:38;;;;;;;5.35;4.85;;;1.60;99.90;;;;;;4880924;29;20224;-69
2021/04/07 05:54:05;;;;;;;7.43;4.80;;;1.60;99.90;;;;;;4881073;29;20648;-69
2021/04/07 05:56:31;;;;;;;6.07;5.00;;;1.60;99.90;;;;;;4880485;29;20253;-69
2021/04/07 05:58:58;;;;;;;5.57;4.95;;;1.60;99.90;;;;;;4880923;29;20238;-69
2021/04/07 06:01:25;;;;;;;6.63;4.57;;;1.70;99.90;;;;;;4880185;29;20243;-69
2021/04/07 06:03:51;;;;;;;8.48;5.05;;;1.70;99.90;;;;;;4880441;29;20200;-69
2021/04/07 06:06:17;;;;;;;9.65;4.57;;;1.70;99.90;;;;;;4880589;29;20219;-69
2021/04/07 06:08:43;;;;;;;11.73;5.00;;;1.70;99.90;;;;;;4880320;29;20211;-69
2021/04/07 06:11:10;;;;;;;4.75;4.28;;;1.70;99.90;;;;;;4879931;29;20232;-69
2021/04/07 06:13:36;;;;;;;8.52;4.18;;;1.70;99.90;;;;;;4880255;29;20204;-70
2021/04/07 06:16:02;;;;;;;7.25;3.78;;;1.80;99.90;;;;;;4880241;29;20211;-70
2021/04/07 06:18:29;;;;;;;7.85;4.65;;;1.80;99.90;;;;;;4879930;29;20279;-70
2021/04/07 06:20:55;;;;;;;4.45;3.97;;;1.80;99.90;;;;;;4879485;29;20287;-70
2021/04/07 06:23:21;;;;;;;9.15;4.70;;;1.90;99.90;;;;;;4880031;29;20207;-70
2021/04/07 06:25:48;;;;;;;4.13;3.70;;;1.90;99.90;;;;;;4879850;29;20268;-69
2021/04/07 06:28:16;;;;;;;3.92;3.22;;;1.90;99.90;;;;;;4880293;29;20204;-69
2021/04/07 06:30:43;;;;;;;4.10;3.30;;;2.00;99.90;;;;;;4880574;29;20235;-70
2021/04/07 06:33:12;;;;;;;7.25;5.03;;;2.00;99.90;;;;;;4879078;29;20235;-69
2021/04/07 06:35:40;;;;;;;7.70;6.10;;;2.10;99.90;;;;;;4880126;29;20721;-69
2021/04/07 06:38:07;;;;;;;10.93;8.45;;;2.10;99.90;;;;;;4880153;29;20673;-70
2021/04/07 06:40:33;;;;;;;5.53;3.80;;;2.10;99.90;;;;;;4879992;29;20531;-69
2021/04/07 06:43:01;;;;;;;6.38;3.70;;;2.10;99.90;;;;;;4879057;29;20492;-70
2021/04/07 06:45:28;;;;;;;10.50;3.90;;;2.20;99.90;;;;;;4879678;29;20681;-70
2021/04/07 06:47:55;;;;;;;3.75;2.95;;;2.30;99.90;;;;;;4879851;29;20223;-69
2021/04/07 06:50:22;;;;;;;3.38;3.10;;;2.40;99.90;;;;;;4879804;29;20204;-70
2021/04/07 06:52:50;;;;;;;4.32;2.75;;;2.40;99.90;;;;;;4879752;29;20327;-70
2021/04/07 06:55:17;;;;;;;7.72;3.55;;;2.30;99.90;;;;;;4876659;29;20239;-70
2021/04/07 06:57:44;;;;;;;3.22;3.00;;;2.30;99.90;;;;;;4879117;29;20212;-69
2021/04/07 07:00:11;;;;;;;5.50;2.58;;;2.30;99.90;;;;;;4879820;29;20246;-69
2021/04/07 07:02:37;;;;;;;4.05;3.22;;;2.30;99.90;;;;;;4873519;29;20231;-69
2021/04/07 07:05:05;;;;;;;3.00;2.80;;;2.30;99.90;;;;;;4879541;29;20215;-69
2021/04/07 07:07:31;;;;;;;3.75;3.05;;;2.30;99.90;;;;;;4879237;29;20211;-69
2021/04/07 07:09:58;;;;;;;3.53;2.97;;;2.30;99.90;;;;;;4879282;29;20208;-70
2021/04/07 07:12:26;;;;;;;3.20;2.90;;;2.30;99.90;;;;;;4879453;29;20371;-70
2021/04/07 07:14:52;;;;;;;3.38;2.85;;;2.30;99.90;;;;;;4880535;29;20212;-70
2021/04/07 07:17:29;;;;;;;3.08;2.88;;;2.30;99.90;;;;;;4879302;29;20204;-70
2021/04/07 07:19:56;;;;;;;5.07;3.78;;;2.30;99.90;;;;;;4879518;29;20207;-69
2021/04/07 07:22:24;;;;;;;3.13;2.83;;;2.30;99.90;;;;;;4879560;29;20224;-69
2021/04/07 07:24:55;;;;;;;5.28;2.90;;;2.40;99.90;;;;;;4879167;29;20216;-69
2021/04/07 07:27:35;;;;;;;7.75;3.05;;;2.30;99.90;;;;;;4879159;29;20601;-69
2021/04/07 07:30:01;;;;;;;2.40;2.30;;;2.30;99.90;;;;;;4879460;29;20692;-69
2021/04/07 07:32:37;;;;;;;2.83;2.63;;;2.30;99.90;;;;;;4877465;29;20228;-68
2021/04/07 07:35:11;;;;;;;2.55;2.45;;;2.30;99.90;;;;;;4879678;29;20219;-70
2021/04/07 07:37:38;;;;;;;2.63;2.53;;;2.30;99.90;;;;;;4877850;29;20653;-70
2021/04/07 07:40:08;;;;;;;2.65;2.55;;;2.30;99.90;;;;;;4879158;29;20267;-70
2021/04/07 07:42:35;;;;;;;5.65;2.95;;;2.30;99.90;;;;;;4878475;29;20207;-71
2021/04/07 07:45:02;;;;;;;4.57;3.42;;;2.50;99.90;;;;;;4879366;29;20208;-70
2021/04/07 07:47:33;;;;;;;3.90;2.65;;;2.50;99.90;;;;;;4878941;29;20211;-70
2021/04/07 07:50:01;;;;;;;7.65;2.65;;;2.50;99.90;;;;;;4879267;29;20651;-70
2021/04/07 07:52:29;;;;;;;4.68;3.88;;;2.50;99.90;;;;;;4878676;29;20236;-70
2021/04/07 07:54:55;;;;;;;7.07;4.10;;;2.50;99.90;;;;;;4860479;29;20581;-70
2021/04/07 07:57:21;;;;;;;4.32;3.38;;;2.50;99.90;;;;;;4860720;29;20224;-70
2021/04/07 07:59:48;;;;;;;3.90;3.60;;;2.60;99.90;;;;;;4860517;29;20225;-69
2021/04/07 08:02:17;;;;;;;3.90;2.90;;;2.60;99.90;;;;;;4873340;29;20693;-69
2021/04/07 08:04:47;;;;;;;3.22;2.95;;;2.70;99.90;;;;;;4879374;29;20216;-69
2021/04/07 08:07:14;;;;;;;3.83;3.47;;;2.70;99.90;;;;;;4878898;29;20224;-69
2021/04/07 08:09:41;;;;;;;2.50;2.50;;;2.70;99.90;;;;;;4878121;29;20669;-69
2021/04/07 08:12:09;;;;;;;3.72;3.30;;;2.70;99.90;;;;;;4879115;29;20661;-69
2021/04/07 08:14:36;;;;;;;3.40;3.10;;;2.70;99.90;;;;;;4879095;29;20244;-69
2021/04/07 08:17:04;;;;;;;4.68;4.00;;;2.80;99.90;;;;;;4878937;29;20669;-69
2021/04/07 08:19:32;;;;;;;3.22;3.03;;;2.80;99.90;;;;;;4878958;29;20263;-69
2021/04/07 08:22:00;;;;;;;3.35;2.70;;;2.80;99.90;;;;;;4879374;29;20231;-69
2021/04/07 08:24:29;;;;;;;3.33;2.95;;;2.80;99.90;;;;;;4879827;29;20215;-71
2021/04/07 08:26:56;;;;;;;3.03;2.83;;;2.80;99.90;;;;;;4879985;29;20208;-71
2021/04/07 08:29:23;;;;;;;4.82;3.47;;;2.80;99.90;;;;;;4880775;29;20318;-70
2021/04/07 08:31:50;;;;;;;5.93;3.83;;;2.80;99.90;;;;;;4882020;29;20232;-70
2021/04/07 08:34:22;;;;;;;5.32;3.35;;;2.90;99.90;;;;;;4882905;29;20537;-70
2021/04/07 08:36:49;;;;;;;6.97;3.58;;;2.90;99.90;;;;;;4881628;29;20242;-70
2021/04/07 08:39:17;;;;;;;3.60;3.40;;;3.00;99.90;;;;;;4880599;29;20216;-70
2021/04/07 08:41:45;;;;;;;5.03;2.97;;;3.00;99.90;;;;;;4878116;29;20236;-70
2021/04/07 08:44:11;;;;;;;3.97;2.97;;;3.00;99.90;;;;;;4878559;29;20559;-70
2021/04/07 08:46:42;;;;;;;3.90;3.15;;;3.10;99.90;;;;;;4878834;29;20227;-70
2021/04/07 08:49:10;;;;;;;3.20;3.00;;;3.20;99.90;;;;;;4878004;29;20204;-70
2021/04/07 08:51:37;;;;;;;4.72;2.90;;;3.20;99.90;;;;;;4878159;29;20231;-70
2021/04/07 08:54:03;;;;;;;3.80;3.42;;;3.20;99.90;;;;;;4877539;29;20219;-70
2021/04/07 08:56:32;;;;;;;6.05;3.05;;;3.30;99.90;;;;;;4877863;29;20204;-71
2021/04/07 08:59:00;;;;;;;5.68;3.53;;;3.40;99.90;;;;;;4878978;29;20310;-71
2021/04/07 09:01:33;;;;;;;3.20;3.00;;;3.50;99.90;;;;;;4878084;29;20235;-70
2021/04/07 09:04:05;;;;;;;2.90;2.70;;;3.50;99.90;;;;;;4878252;29;20605;-70
2021/04/07 09:06:31;;;;;;;2.80;2.45;;;3.50;99.90;;;;;;4877940;29;20220;-71
2021/04/07 09:08:59;;;;;;;2.55;2.38;;;3.50;99.90;;;;;;4878249;29;20219;-70
2021/04/07 09:11:31;;;;;;;3.05;2.85;;;3.50;99.90;;;;;;4877967;29;20289;-71
2021/04/07 09:14:04;;;;;;;2.85;2.75;;;3.60;99.90;;;;;;4878463;29;20222;-71
2021/04/07 09:16:39;;;;;;;2.55;2.45;;;3.60;99.90;;;;;;4878552;29;20216;-70
2021/04/07 09:19:20;;;;;;;3.35;3.03;;;3.70;99.90;;;;;;4878150;29;20334;-70
2021/04/07 09:21:54;;;;;;;2.60;2.50;;;3.70;99.90;;;;;;4881760;29;20227;-70
2021/04/07 09:24:23;;;;;;;2.63;2.53;;;3.70;99.90;;;;;;4884487;29;20218;-70
2021/04/07 09:26:50;;;;;;;3.10;2.75;;;3.70;99.90;;;;;;4881895;29;20208;-70
2021/04/07 09:29:17;;;;;;;5.75;2.83;;;3.80;99.90;;;;;;4882090;29;20208;-69
2021/04/07 09:31:45;;;;;;;3.58;2.97;;;3.80;99.90;;;;;;4881655;29;20553;-69
2021/04/07 09:34:13;;;;;;;2.20;1.95;;;3.80;99.90;;;;;;4881926;29;20223;-70
2021/04/07 09:36:41;;;;;;;3.60;3.00;;;3.90;99.90;;;;;;4882004;29;20263;-70
2021/04/07 09:39:09;;;;;;;4.50;2.60;;;3.90;99.90;;;;;;4881967;29;20657;-70
2021/04/07 09:41:40;;;;;;;2.97;2.78;;;3.90;99.90;;;;;;4881047;29;20564;-70
2021/04/07 09:44:07;;;;;;;2.70;2.65;;;3.90;99.90;;;;;;4881362;29;20215;-69
2021/04/07 09:46:34;;;;;;;3.08;2.70;;;3.90;99.90;;;;;;4880607;29;20596;-70
2021/04/07 09:49:04;;;;;;;4.35;2.90;;;4.00;99.90;;;;;;4883137;29;20227;-71
2021/04/07 09:51:32;;;;;;;3.60;2.78;;;4.20;99.90;;;;;;4885016;29;20224;-70
2021/04/07 09:54:18;;;;;;;2.83;2.63;;;4.30;99.90;;;;;;4880564;29;20216;-70
2021/04/07 09:57:06;;;;;;;1.92;1.73;;;4.20;99.90;;;;;;4880841;29;20700;-70
2021/04/07 09:59:40;;;;;;;3.00;2.80;;;4.40;99.90;;;;;;4877315;29;20286;-70
2021/04/07 10:02:08;;;;;;;2.70;2.50;;;4.50;99.90;;;;;;4880916;29;20284;-70
2021/04/07 10:04:36;;;;;;;2.25;2.15;;;4.60;99.90;;;;;;4880061;29;20206;-70
2021/04/07 10:07:14;;;;;;;2.25;2.15;;;4.60;99.90;;;;;;4880571;29;20708;-70
2021/04/07 10:09:45;;;;;;;3.78;3.03;;;4.60;99.90;;;;;;4879795;29;20541;-70
2021/04/07 10:12:13;;;;;;;2.10;2.10;;;4.60;99.90;;;;;;4880300;29;20640;-70
2021/04/07 10:14:45;;;;;;;2.42;2.30;;;4.60;99.90;;;;;;4880243;29;20265;-70
2021/04/07 10:17:13;;;;;;;3.42;2.05;;;4.60;99.90;;;;;;4880432;29;20223;-70
2021/04/07 10:19:39;;;;;;;2.10;2.00;;;4.60;99.90;;;;;;4879770;29;20211;-71
2021/04/07 10:22:13;;;;;;;1.83;1.83;;;4.60;99.90;;;;;;4880820;29;20645;-71
2021/04/07 10:24:40;;;;;;;2.45;2.35;;;4.60;99.90;;;;;;4880250;29;20203;-72
2021/04/07 10:27:07;;;;;;;2.67;2.58;;;4.60;99.90;;;;;;4880207;29;20208;-70
2021/04/07 10:29:34;;;;;;;2.38;2.28;;;4.60;99.90;;;;;;4878212;29;20211;-70
2021/04/07 10:32:01;;;;;;;2.97;2.80;;;4.60;99.90;;;;;;4878806;29;20235;-70
2021/04/07 10:34:31;;;;;;;2.97;2.50;;;4.70;99.90;;;;;;4879593;29;20204;-70
2021/04/07 10:36:58;;;;;;;2.20;2.10;;;4.80;99.90;;;;;;4877654;29;20703;-70
2021/04/07 10:39:25;;;;;;;2.22;2.13;;;4.80;99.90;;;;;;4880825;29;20219;-70
2021/04/07 10:41:52;;;;;;;2.08;1.98;;;4.80;99.90;;;;;;4879896;29;20220;-69
2021/04/07 10:44:23;;;;;;;2.47;2.38;;;4.80;99.90;;;;;;4880439;29;20212;-72
2021/04/07 10:46:51;;;;;;;2.25;2.05;;;4.90;99.90;;;;;;4880013;29;20212;-69
2021/04/07 10:49:17;;;;;;;2.15;2.05;;;4.90;99.90;;;;;;4880042;29;20208;-72
2021/04/07 10:51:44;;;;;;;2.00;1.90;;;4.90;99.90;;;;;;4879688;29;20239;-71
2021/04/07 10:54:11;;;;;;;2.05;1.95;;;4.80;99.90;;;;;;4880377;29;20255;-71
2021/04/07 10:56:38;;;;;;;2.40;2.30;;;4.90;99.90;;;;;;4879455;29;20295;-71
2021/04/07 10:59:07;;;;;;;2.42;2.40;;;5.00;99.90;;;;;;4880199;29;20212;-71
2021/04/07 11:01:36;;;;;;;2.25;2.25;;;5.00;99.90;;;;;;4879772;29;20255;-70
2021/04/07 11:04:14;;;;;;;2.47;2.33;;;5.10;99.90;;;;;;4879106;29;20544;-71
2021/04/07 11:06:40;;;;;;;2.38;2.28;;;5.20;99.90;;;;;;4879415;29;20228;-71
2021/04/07 11:09:07;;;;;;;2.20;2.20;;;5.30;99.90;;;;;;4879877;29;20204;-70
2021/04/07 11:11:35;;;;;;;2.42;2.33;;;5.40;99.90;;;;;;4879244;29;20275;-71
2021/04/07 11:14:02;;;;;;;2.72;2.53;;;5.50;99.90;;;;;;4878844;29;20204;-71
2021/04/07 11:16:32;;;;;;;2.65;2.50;;;5.50;99.90;;;;;;4879633;29;20208;-71
2021/04/07 11:18:58;;;;;;;2.45;2.28;;;5.50;99.90;;;;;;4879712;29;20580;-71
2021/04/07 11:21:26;;;;;;;1.98;1.98;;;5.40;99.90;;;;;;4879694;29;20371;-70
2021/04/07 11:23:52;;;;;;;2.65;2.55;;;5.40;99.90;;;;;;4879868;29;20212;-71
2021/04/07 11:26:19;;;;;;;2.60;2.50;;;5.50;99.90;;;;;;4878978;29;20219;-70
2021/04/07 11:28:45;;;;;;;2.20;2.20;;;5.60;99.90;;;;;;4879709;29;20212;-71
2021/04/07 11:31:13;;;;;;;2.88;2.78;;;5.70;99.90;;;;;;4879520;29;20236;-70
2021/04/07 11:33:48;;;;;;;2.30;2.10;;;5.80;99.90;;;;;;4878798;29;20228;-70
2021/04/07 11:36:23;;;;;;;2.92;2.45;;;6.00;99.90;;;;;;4880107;29;20232;-70
2021/04/07 11:38:53;;;;;;;3.75;2.83;;;6.30;99.90;;;;;;4880034;29;20827;-71
2021/04/07 11:46:49;;;;;;;2.03;2.03;;;6.70;99.90;;;;;;4869103;29;20226;-71
2021/04/07 11:49:18;;;;;;;2.08;2.08;;;6.70;99.90;;;;;;4879585;29;20219;-70
2021/04/07 11:51:44;;;;;;;1.95;1.95;;;6.80;99.90;;;;;;4879555;29;20224;-70
2021/04/07 11:54:12;;;;;;;2.17;2.08;;;6.90;99.90;;;;;;4879089;29;20203;-71
2021/04/07 11:56:42;;;;;;;2.40;2.30;;;7.10;99.90;;;;;;4862148;29;20213;-71
2021/04/07 11:59:11;;;;;;;6.07;4.60;;;7.20;99.90;;;;;;4885988;29;20677;-71
2021/04/07 12:01:38;;;;;;;4.47;4.07;;;7.30;99.90;;;;;;4880425;29;20246;-70
2021/04/07 12:04:04;;;;;;;2.20;2.15;;;7.30;99.90;;;;;;4882144;29;20557;-71
2021/04/07 12:06:31;;;;;;;2.35;2.10;;;7.30;99.90;;;;;;4884043;29;20287;-71
2021/04/07 12:08:57;;;;;;;2.53;2.42;;;7.30;99.90;;;;;;4884351;29;20216;-71
2021/04/07 12:11:25;;;;;;;1.88;1.80;;;7.50;99.90;;;;;;4884360;29;20238;-70
2021/04/07 12:13:52;;;;;;;2.15;2.05;;;7.60;99.90;;;;;;4883665;29;20231;-71
2021/04/07 12:16:18;;;;;;;1.98;1.98;;;7.60;99.90;;;;;;4879070;29;20212;-70
2021/04/07 12:18:45;;;;;;;2.70;2.58;;;7.60;99.90;;;;;;4878793;29;20207;-70
2021/04/07 12:21:12;;;;;;;2.78;2.67;;;7.50;99.90;;;;;;4879629;29;20268;-71
2021/04/07 12:23:39;;;;;;;2.58;2.38;;;7.30;99.90;;;;;;4879010;29;20218;-70
2021/04/07 12:26:06;;;;;;;2.75;2.60;;;7.20;99.90;;;;;;4878302;29;20582;-70
2021/04/07 12:28:34;;;;;;;2.60;2.50;;;7.10;99.90;;;;;;4878157;29;20298;-69
2021/04/07 12:31:00;;;;;;;2.28;2.15;;;7.00;99.90;;;;;;4864259;29;20284;-70
2021/04/07 12:33:27;;;;;;;2.38;2.20;;;7.10;99.90;;;;;;4877696;29;20228;-70
2021/04/07 12:36:03;;;;;;;2.20;2.13;;;7.20;99.90;;;;;;4879026;29;20215;-70
2021/04/07 12:38:31;;;;;;;1.50;1.50;;;7.50;99.90;;;;;;4878073;29;20207;-71
2021/04/07 12:40:58;;;;;;;1.88;1.80;;;7.40;99.90;;;;;;4878754;29;20235;-71
2021/04/07 12:43:25;;;;;;;1.60;1.60;;;7.30;99.90;;;;;;4879128;29;20211;-72
2021/04/07 12:45:52;;;;;;;2.70;2.10;;;7.20;99.90;;;;;;4879826;29;20208;-70
2021/04/07 12:48:19;;;;;;;2.13;2.03;;;7.00;99.90;;;;;;4878285;29;20376;-70
2021/04/07 12:50:45;;;;;;;1.73;1.73;;;6.90;99.90;;;;;;4879295;29;20230;-71
2021/04/07 12:53:12;;;;;;;3.30;3.10;;;6.90;99.90;;;;;;4882153;29;20227;-71
2021/04/07 12:55:38;;;;;;;1.95;1.85;;;6.80;99.90;;;;;;4883145;29;20216;-70
2021/04/07 12:58:04;;;;;;;1.67;1.67;;;6.60;99.90;;;;;;4883347;29;20298;-70
2021/04/07 13:00:32;;;;;;;3.10;2.53;;;6.50;99.90;;;;;;4881788;29;20235;-70
2021/04/07 13:02:59;;;;;;;1.98;1.88;;;6.60;99.90;;;;;;4881336;29;20214;-70
2021/04/07 13:05:25;;;;;;;2.38;2.35;;;6.60;99.90;;;;;;4882226;29;20234;-70
2021/04/07 13:07:52;;;;;;;2.05;2.05;;;6.50;99.90;;;;;;4881955;29;20634;-69
2021/04/07 13:10:21;;;;;;;2.85;2.65;;;6.50;99.90;;;;;;4881447;29;20215;-70
2021/04/07 13:12:47;;;;;;;2.55;2.45;;;6.30;99.90;;;;;;4881759;29;20239;-70
2021/04/07 13:15:15;;;;;;;3.05;2.78;;;6.30;99.90;;;;;;4882119;29;20216;-69
2021/04/07 13:17:41;;;;;;;2.65;2.10;;;6.40;99.90;;;;;;4881323;29;20252;-70
2021/04/07 13:20:14;;;;;;;2.15;2.10;;;6.40;99.90;;;;;;4881660;29;20226;-69
2021/04/07 13:22:40;;;;;;;2.40;2.22;;;6.40;99.90;;;;;;4881475;29;20214;-71
2021/04/07 13:25:07;;;;;;;2.15;2.00;;;6.50;99.90;;;;;;4881566;29;20219;-70
2021/04/07 13:27:34;;;;;;;2.40;2.30;;;6.50;99.90;;;;;;4881284;29;20220;-70
2021/04/07 13:30:00;;;;;;;2.25;2.25;;;6.50;99.90;;;;;;4879133;29;20560;-70
2021/04/07 13:32:28;;;;;;;2.72;2.53;;;6.50;99.90;;;;;;4882562;29;20232;-70
2021/04/07 13:35:01;;;;;;;2.70;2.60;;;6.40;99.90;;;;;;4875926;29;20216;-69
2021/04/07 13:37:40;;;;;;;3.08;2.30;;;6.40;99.90;;;;;;4877153;29;20743;-70
2021/04/07 13:40:11;;;;;;;2.15;2.05;;;6.60;99.90;;;;;;4880960;29;20212;-70
2021/04/07 13:45:26;;;;;;;2.45;2.25;;;6.80;99.90;;;;;;4873276;29;20339;-70
2021/04/07 13:47:55;;;;;;;2.30;1.80;;;6.70;99.90;;;;;;4880071;29;20216;-69
2021/04/07 13:50:22;;;;;;;2.10;2.05;;;6.70;99.90;;;;;;4879878;29;20732;-70
2021/04/07 13:52:51;;;;;;;2.35;2.15;;;6.70;99.90;;;;;;4880201;29;20732;-69
2021/04/07 13:55:19;;;;;;;2.45;2.33;;;6.80;99.90;;;;;;4879894;29;20276;-69
2021/04/07 13:57:45;;;;;;;2.92;2.72;;;6.80;99.90;;;;;;4872771;29;20211;-69
2021/04/07 14:00:13;;;;;;;2.33;2.22;;;6.80;99.90;;;;;;4880502;29;20630;-69
2021/04/07 14:02:40;;;;;;;3.45;1.80;;;6.90;99.90;;;;;;4879327;29;20219;-69
2021/04/07 14:05:07;;;;;;;2.45;2.35;;;7.10;99.90;;;;;;4880630;29;20684;-70
2021/04/07 14:07:33;;;;;;;2.03;1.85;;;7.30;99.90;;;;;;4879051;29;20724;-70
2021/04/07 14:10:00;;;;;;;11.48;7.93;;;7.40;99.90;;;;;;4880068;29;20218;-70
2021/04/07 14:12:30;;;;;;;2.53;1.88;;;7.40;99.90;;;;;;4875170;29;20327;-69
2021/04/07 14:14:56;;;;;;;2.17;2.08;;;7.40;99.90;;;;;;4875988;29;20313;-70
2021/04/07 14:17:22;;;;;;;3.83;1.85;;;7.30;99.90;;;;;;4872941;29;20288;-70
2021/04/07 14:19:48;;;;;;;3.40;2.10;;;7.30;99.90;;;;;;4877079;29;20217;-69
2021/04/07 14:22:14;;;;;;;2.00;1.90;;;7.20;99.90;;;;;;4879574;29;20602;-70
2021/04/07 14:24:41;;;;;;;3.47;1.25;;;7.00;99.90;;;;;;4880410;29;20571;-70
2021/04/07 14:27:08;;;;;;;1.55;1.45;;;7.00;99.90;;;;;;4874011;29;20241;-69
2021/04/07 14:29:35;;;;;;;1.52;1.42;;;7.10;99.90;;;;;;4880196;29;20287;-69
2021/04/07 14:32:03;;;;;;;1.95;1.48;;;7.20;99.90;;;;;;4879971;29;20228;-67
2021/04/07 14:34:29;;;;;;;5.30;4.85;;;7.30;99.90;;;;;;4879751;29;20201;-70
2021/04/07 14:36:56;;;;;;;2.45;1.85;;;7.50;99.90;;;;;;4879578;29;20204;-68
2021/04/07 14:39:22;;;;;;;6.15;2.78;;;7.50;99.90;;;;;;4880671;29;20243;-70
2021/04/07 14:41:48;;;;;;;4.22;2.17;;;7.50;99.90;;;;;;4881188;29;20244;-69
2021/04/07 14:44:15;;;;;;;2.20;2.00;;;7.40;99.90;;;;;;4879787;29;20215;-69
2021/04/07 14:46:41;;;;;;;1.90;1.73;;;7.30;99.90;;;;;;4880101;29;20259;-69
2021/04/07 14:49:08;;;;;;;3.45;2.30;;;7.40;99.90;;;;;;4878793;29;20216;-70
2021/04/07 14:51:40;;;;;;;2.78;1.52;;;7.60;99.90;;;;;;4879434;29;20235;-70
2021/04/07 14:54:10;;;;;;;3.30;1.10;;;7.80;99.90;;;;;;4879121;29;20243;-70
2021/04/07 14:56:37;;;;;;;5.50;2.20;;;8.10;99.90;;;;;;4879235;29;20208;-70
2021/04/07 14:59:03;;;;;;;3.35;2.25;;;8.30;99.90;;;;;;4879301;29;20255;-70
2021/04/07 15:01:30;;;;;;;4.15;1.67;;;8.40;99.90;;;;;;4880104;29;20724;-71
2021/04/07 15:03:56;;;;;;;8.95;4.20;;;8.40;99.90;;;;;;4872280;29;20489;-71
2021/04/07 15:06:22;;;;;;;6.60;2.95;;;8.40;99.90;;;;;;4881319;29;20680;-69
2021/04/07 15:08:49;;;;;;;2.42;1.20;;;8.40;99.90;;;;;;4880827;29;20211;-72
2021/04/07 15:11:15;;;;;;;3.70;1.52;;;8.40;99.90;;;;;;4882129;29;20227;-70
2021/04/07 15:13:42;;;;;;;2.60;1.00;;;8.10;99.90;;;;;;4877824;29;20224;-73
2021/04/07 15:16:08;;;;;;;2.17;0.98;;;8.00;99.90;;;;;;4893367;29;20211;-70
2021/04/07 15:18:36;;;;;;;1.00;0.82;;;8.00;99.90;;;;;;4879859;29;20204;-71
2021/04/07 15:21:03;;;;;;;1.67;1.05;;;7.80;99.90;;;;;;4878872;29;20273;-69
2021/04/07 15:23:30;;;;;;;3.10;1.50;;;7.80;99.90;;;;;;4879027;29;20339;-69
2021/04/07 15:25:58;;;;;;;4.07;1.30;;;7.90;99.90;;;;;;4878172;29;20208;-68
2021/04/07 15:28:39;;;;;;;3.00;1.00;;;8.00;99.90;;;;;;4878726;29;20219;-71
2021/04/07 15:31:07;;;;;;;1.05;0.95;;;7.90;99.90;;;;;;4878649;29;20235;-71
2021/04/07 15:33:35;;;;;;;3.70;0.88;;;7.70;99.90;;;;;;4880080;29;20236;-70
2021/04/07 15:36:02;;;;;;;2.05;1.40;;;7.50;99.90;;;;;;4880345;29;20367;-72
2021/04/07 15:38:30;;;;;;;2.88;0.88;;;7.40;99.90;;;;;;4880885;29;20226;-72
2021/04/07 15:40:57;;;;;;;4.25;1.70;;;7.30;99.90;;;;;;4880728;29;20232;-72
2021/04/07 15:43:25;;;;;;;2.63;1.02;;;7.20;99.90;;;;;;4881757;29;20204;-72
2021/04/07 15:45:52;;;;;;;3.15;0.70;;;7.10;99.90;;;;;;4881546;29;20220;-72
2021/04/07 15:48:19;;;;;;;3.10;1.17;;;7.10;99.90;;;;;;4879612;29;20222;-69
2021/04/07 15:50:48;;;;;;;1.75;1.00;;;7.20;99.90;;;;;;4878886;29;20263;-69
2021/04/07 15:53:16;;;;;;;1.73;1.45;;;7.20;99.90;;;;;;4878995;29;20311;-69
2021/04/07 15:55:44;;;;;;;3.25;1.10;;;7.20;99.90;;;;;;4878811;29;20247;-69
2021/04/07 15:58:11;;;;;;;1.67;0.75;;;7.10;99.90;;;;;;4878701;29;20212;-69
2021/04/07 16:00:38;;;;;;;3.08;1.10;;;7.10;99.90;;;;;;4878955;29;20236;-69
2021/04/07 16:03:04;;;;;;;4.00;1.10;;;7.10;99.90;;;;;;4878770;29;20208;-69
2021/04/07 16:05:30;;;;;;;1.23;0.95;;;7.00;99.90;;;;;;4879242;29;20272;-69
2021/04/07 16:07:58;;;;;;;2.35;1.63;;;7.00;99.90;;;;;;4878835;29;20212;-69
2021/04/07 16:10:25;;;;;;;0.90;0.90;;;6.90;99.90;;;;;;4878699;29;20302;-69
2021/04/07 16:12:52;;;;;;;4.68;0.98;;;7.00;99.90;;;;;;4878801;29;20284;-70
2021/04/07 16:15:19;;;;;;;2.95;0.90;;;6.90;99.90;;;;;;4879129;29;20754;-71
2021/04/07 16:17:45;;;;;;;0.60;0.60;;;6.80;99.90;;;;;;4878688;29;20216;-71
2021/04/07 16:20:12;;;;;;;0.70;0.70;;;6.60;99.90;;;;;;4878786;29;20283;-71
2021/04/07 16:22:38;;;;;;;1.50;0.75;;;6.50;99.90;;;;;;4878901;29;20271;-71
2021/04/07 16:25:08;;;;;;;2.42;0.95;;;6.60;99.90;;;;;;4879666;29;20208;-71
2021/04/07 16:27:34;;;;;;;0.57;0.57;;;6.70;99.90;;;;;;4879907;29;20215;-71
2021/04/07 16:30:00;;;;;;;0.75;0.73;;;6.70;99.90;;;;;;4878726;29;20268;-70
2021/04/07 16:32:27;;;;;;;0.68;0.52;;;6.70;99.90;;;;;;4877898;29;20239;-71
2021/04/07 16:34:53;;;;;;;0.57;0.57;;;6.60;99.90;;;;;;4878574;29;20220;-70
2021/04/07 16:37:19;;;;;;;1.98;1.35;;;6.60;99.90;;;;;;4878657;29;20302;-70
2021/04/07 16:39:46;;;;;;;0.88;0.70;;;6.60;99.90;;;;;;4878350;29;20294;-70
2021/04/07 16:42:14;;;;;;;1.90;1.80;;;6.60;99.90;;;;;;4878397;29;20228;-71
2021/04/07 16:44:40;;;;;;;1.00;0.68;;;6.60;99.90;;;;;;4878762;29;20657;-70
2021/04/07 16:47:06;;;;;;;2.90;1.00;;;6.50;99.90;;;;;;4878407;29;20223;-70
2021/04/07 16:49:33;;;;;;;6.28;1.20;;;6.50;99.90;;;;;;4877806;29;20611;-71
2021/04/07 16:51:59;;;;;;;1.30;0.68;;;6.40;99.90;;;;;;4878622;29;20242;-71
2021/04/07 16:54:25;;;;;;;1.45;1.10;;;6.40;99.90;;;;;;4878479;29;20227;-71
2021/04/07 16:56:52;;;;;;;2.75;0.82;;;6.30;99.90;;;;;;4878210;29;20208;-71
2021/04/07 16:59:20;;;;;;;1.15;1.15;;;6.20;99.90;;;;;;4879153;29;20219;-71
2021/04/07 17:01:47;;;;;;;1.38;1.05;;;6.20;99.90;;;;;;4879194;29;20291;-70
2021/04/07 17:04:13;;;;;;;0.80;0.80;;;6.10;99.90;;;;;;4878651;29;20586;-71
2021/04/07 17:06:39;;;;;;;2.85;1.98;;;6.10;99.90;;;;;;4878672;29;20236;-71